sensor_id;sensor_type;location;lat;lon;timestamp;P1;durP1;ratioP1;P2;durP2;ratioP2
26774;SDS011;14362;51.902;7.626;2023-12-20T00:01:54;10.60;;;5.10;;
26774;SDS011;14362;51.902;7.626;2023-12-20T00:05:55;11.25;;;6.03;;
26774;SDS011;14362;51.902;7.626;2023-12-20T00:09:57;16.02;;;6.82;;
26774;SDS011;14362;51.902;7.626;2023-12-20T00:13:58;15.23;;;7.80;;
26774;SDS011;14362;51.902;7.626;2023-12-20T00:18:01;17.88;;;8.98;;
26774;SDS011;14362;51.902;7.626;2023-12-20T00:22:02;20.42;;;8.68;;
26774;SDS011;14362;51.902;7.626;2023-12-20T00:26:04;17.50;;;9.23;;
26774;SDS011;14362;51.902;7.626;2023-12-20T00:30:06;17.50;;;9.07;;
26774;SDS011;14362;51.902;7.626;2023-12-20T00:34:09;21.55;;;8.98;;
26774;SDS011;14362;51.902;7.626;2023-12-20T00:38:11;19.33;;;8.73;;
26774;SDS011;14362;51.902;7.626;2023-12-20T00:42:12;20.50;;;10.23;;
26774;SDS011;14362;51.902;7.626;2023-12-20T00:46:13;18.75;;;9.00;;
26774;SDS011;14362;51.902;7.626;2023-12-20T00:50:16;23.70;;;9.70;;
26774;SDS011;14362;51.902;7.626;2023-12-20T00:54:18;20.30;;;9.80;;
26774;SDS011;14362;51.902;7.626;2023-12-20T00:58:19;20.77;;;10.07;;
26774;SDS011;14362;51.902;7.626;2023-12-20T01:02:20;21.52;;;9.40;;
26774;SDS011;14362;51.902;7.626;2023-12-20T01:06:23;17.67;;;8.75;;
26774;SDS011;14362;51.902;7.626;2023-12-20T01:10:25;20.88;;;8.52;;
26774;SDS011;14362;51.902;7.626;2023-12-20T01:14:28;18.30;;;7.93;;
26774;SDS011;14362;51.902;7.626;2023-12-20T01:18:29;20.80;;;8.00;;
26774;SDS011;14362;51.902;7.626;2023-12-20T01:22:32;19.45;;;7.97;;
26774;SDS011;14362;51.902;7.626;2023-12-20T01:26:35;19.38;;;7.95;;
26774;SDS011;14362;51.902;7.626;2023-12-20T01:30:37;17.00;;;8.68;;
26774;SDS011;14362;51.902;7.626;2023-12-20T01:34:38;19.33;;;8.18;;
26774;SDS011;14362;51.902;7.626;2023-12-20T01:38:41;23.00;;;8.77;;
26774;SDS011;14362;51.902;7.626;2023-12-20T01:42:42;21.25;;;8.25;;
26774;SDS011;14362;51.902;7.626;2023-12-20T01:46:44;18.60;;;8.40;;
26774;SDS011;14362;51.902;7.626;2023-12-20T01:50:46;18.25;;;8.48;;
26774;SDS011;14362;51.902;7.626;2023-12-20T01:54:50;14.88;;;7.75;;
26774;SDS011;14362;51.902;7.626;2023-12-20T01:58:52;18.30;;;8.57;;
26774;SDS011;14362;51.902;7.626;2023-12-20T02:02:54;18.30;;;8.40;;
26774;SDS011;14362;51.902;7.626;2023-12-20T02:06:55;15.40;;;8.45;;
26774;SDS011;14362;51.902;7.626;2023-12-20T02:11:00;16.85;;;8.00;;
26774;SDS011;14362;51.902;7.626;2023-12-20T02:15:01;19.17;;;8.75;;
26774;SDS011;14362;51.902;7.626;2023-12-20T02:19:03;18.67;;;7.82;;
26774;SDS011;14362;51.902;7.626;2023-12-20T02:23:07;14.43;;;6.90;;
26774;SDS011;14362;51.902;7.626;2023-12-20T02:27:09;18.85;;;7.75;;
26774;SDS011;14362;51.902;7.626;2023-12-20T02:31:10;14.30;;;6.55;;
26774;SDS011;14362;51.902;7.626;2023-12-20T02:35:12;22.13;;;6.07;;
26774;SDS011;14362;51.902;7.626;2023-12-20T02:39:14;17.23;;;6.15;;
26774;SDS011;14362;51.902;7.626;2023-12-20T02:43:16;14.80;;;5.85;;
26774;SDS011;14362;51.902;7.626;2023-12-20T02:47:18;21.92;;;5.60;;
26774;SDS011;14362;51.902;7.626;2023-12-20T02:51:19;15.68;;;5.75;;
26774;SDS011;14362;51.902;7.626;2023-12-20T02:55:22;16.90;;;6.13;;
26774;SDS011;14362;51.902;7.626;2023-12-20T02:59:23;26.52;;;7.75;;
26774;SDS011;14362;51.902;7.626;2023-12-20T03:03:24;17.70;;;5.88;;
26774;SDS011;14362;51.902;7.626;2023-12-20T03:07:26;16.95;;;6.10;;
26774;SDS011;14362;51.902;7.626;2023-12-20T03:11:29;16.48;;;6.25;;
26774;SDS011;14362;51.902;7.626;2023-12-20T03:15:30;19.67;;;5.65;;
26774;SDS011;14362;51.902;7.626;2023-12-20T03:19:32;15.95;;;5.05;;
26774;SDS011;14362;51.902;7.626;2023-12-20T03:23:33;15.23;;;6.25;;
26774;SDS011;14362;51.902;7.626;2023-12-20T03:27:37;19.50;;;5.97;;
26774;SDS011;14362;51.902;7.626;2023-12-20T03:31:39;15.40;;;6.22;;
26774;SDS011;14362;51.902;7.626;2023-12-20T03:35:41;17.25;;;6.18;;
26774;SDS011;14362;51.902;7.626;2023-12-20T03:39:42;18.23;;;4.72;;
26774;SDS011;14362;51.902;7.626;2023-12-20T03:43:45;17.00;;;5.50;;
26774;SDS011;14362;51.902;7.626;2023-12-20T03:47:46;12.23;;;5.13;;
26774;SDS011;14362;51.902;7.626;2023-12-20T03:51:48;20.70;;;5.22;;
26774;SDS011;14362;51.902;7.626;2023-12-20T03:55:50;17.90;;;5.22;;
26774;SDS011;14362;51.902;7.626;2023-12-20T03:59:52;16.65;;;5.15;;
26774;SDS011;14362;51.902;7.626;2023-12-20T04:03:54;16.42;;;4.78;;
26774;SDS011;14362;51.902;7.626;2023-12-20T04:07:55;18.33;;;5.13;;
26774;SDS011;14362;51.902;7.626;2023-12-20T04:11:57;16.20;;;4.90;;
26774;SDS011;14362;51.902;7.626;2023-12-20T04:15:59;24.15;;;6.55;;
26774;SDS011;14362;51.902;7.626;2023-12-20T04:20:01;19.02;;;5.05;;
26774;SDS011;14362;51.902;7.626;2023-12-20T04:24:03;19.27;;;6.00;;
26774;SDS011;14362;51.902;7.626;2023-12-20T04:28:05;23.48;;;6.53;;
26774;SDS011;14362;51.902;7.626;2023-12-20T04:32:07;12.35;;;5.55;;
26774;SDS011;14362;51.902;7.626;2023-12-20T04:36:09;23.27;;;6.57;;
26774;SDS011;14362;51.902;7.626;2023-12-20T04:40:10;18.45;;;6.38;;
26774;SDS011;14362;51.902;7.626;2023-12-20T04:44:12;21.35;;;7.15;;
26774;SDS011;14362;51.902;7.626;2023-12-20T04:48:15;25.05;;;7.28;;
26774;SDS011;14362;51.902;7.626;2023-12-20T04:52:16;24.27;;;7.72;;
26774;SDS011;14362;51.902;7.626;2023-12-20T04:56:18;22.50;;;7.22;;
26774;SDS011;14362;51.902;7.626;2023-12-20T05:00:19;28.10;;;8.10;;
26774;SDS011;14362;51.902;7.626;2023-12-20T05:04:22;22.10;;;7.28;;
26774;SDS011;14362;51.902;7.626;2023-12-20T05:08:23;25.77;;;8.00;;
26774;SDS011;14362;51.902;7.626;2023-12-20T05:12:25;22.35;;;7.85;;
26774;SDS011;14362;51.902;7.626;2023-12-20T05:16:26;23.13;;;8.27;;
26774;SDS011;14362;51.902;7.626;2023-12-20T05:20:29;20.98;;;8.07;;
26774;SDS011;14362;51.902;7.626;2023-12-20T05:24:30;16.50;;;8.35;;
26774;SDS011;14362;51.902;7.626;2023-12-20T05:28:32;22.73;;;8.25;;
26774;SDS011;14362;51.902;7.626;2023-12-20T05:32:33;28.48;;;8.98;;
26774;SDS011;14362;51.902;7.626;2023-12-20T05:36:36;23.02;;;7.43;;
26774;SDS011;14362;51.902;7.626;2023-12-20T05:40:38;22.23;;;7.50;;
26774;SDS011;14362;51.902;7.626;2023-12-20T05:44:40;23.33;;;7.82;;
26774;SDS011;14362;51.902;7.626;2023-12-20T05:48:41;17.23;;;7.07;;
26774;SDS011;14362;51.902;7.626;2023-12-20T05:52:44;22.90;;;7.22;;
26774;SDS011;14362;51.902;7.626;2023-12-20T05:56:45;19.90;;;7.40;;
26774;SDS011;14362;51.902;7.626;2023-12-20T06:00:47;13.75;;;6.03;;
26774;SDS011;14362;51.902;7.626;2023-12-20T06:04:48;26.00;;;6.25;;
26774;SDS011;14362;51.902;7.626;2023-12-20T06:08:51;21.92;;;6.57;;
26774;SDS011;14362;51.902;7.626;2023-12-20T06:12:53;22.70;;;7.03;;
26774;SDS011;14362;51.902;7.626;2023-12-20T06:16:55;17.70;;;7.32;;
26774;SDS011;14362;51.902;7.626;2023-12-20T06:20:57;17.27;;;6.63;;
26774;SDS011;14362;51.902;7.626;2023-12-20T06:24:59;16.50;;;6.72;;
26774;SDS011;14362;51.902;7.626;2023-12-20T06:29:01;27.55;;;7.15;;
26774;SDS011;14362;51.902;7.626;2023-12-20T06:33:02;15.95;;;6.47;;
26774;SDS011;14362;51.902;7.626;2023-12-20T06:37:04;18.50;;;6.55;;
26774;SDS011;14362;51.902;7.626;2023-12-20T06:41:07;23.30;;;7.97;;
26774;SDS011;14362;51.902;7.626;2023-12-20T06:45:09;19.23;;;6.40;;
26774;SDS011;14362;51.902;7.626;2023-12-20T06:49:11;24.83;;;7.18;;
26774;SDS011;14362;51.902;7.626;2023-12-20T06:53:13;20.73;;;6.63;;
26774;SDS011;14362;51.902;7.626;2023-12-20T06:57:16;17.27;;;6.80;;
26774;SDS011;14362;51.902;7.626;2023-12-20T07:01:17;22.52;;;7.07;;
26774;SDS011;14362;51.902;7.626;2023-12-20T07:05:18;22.42;;;6.43;;
26774;SDS011;14362;51.902;7.626;2023-12-20T07:09:20;26.65;;;7.15;;
26774;SDS011;14362;51.902;7.626;2023-12-20T07:13:23;23.23;;;7.55;;
26774;SDS011;14362;51.902;7.626;2023-12-20T07:17:24;22.08;;;7.45;;
26774;SDS011;14362;51.902;7.626;2023-12-20T07:21:26;14.15;;;6.28;;
26774;SDS011;14362;51.902;7.626;2023-12-20T07:25:27;21.05;;;6.32;;
26774;SDS011;14362;51.902;7.626;2023-12-20T07:29:31;26.25;;;7.40;;
26774;SDS011;14362;51.902;7.626;2023-12-20T07:33:33;19.38;;;7.22;;
26774;SDS011;14362;51.902;7.626;2023-12-20T07:37:34;19.73;;;6.70;;
26774;SDS011;14362;51.902;7.626;2023-12-20T07:41:35;23.45;;;6.72;;
26774;SDS011;14362;51.902;7.626;2023-12-20T07:45:38;16.45;;;6.60;;
26774;SDS011;14362;51.902;7.626;2023-12-20T07:49:40;14.63;;;6.75;;
26774;SDS011;14362;51.902;7.626;2023-12-20T07:53:41;23.95;;;8.23;;
26774;SDS011;14362;51.902;7.626;2023-12-20T07:57:43;24.70;;;7.13;;
26774;SDS011;14362;51.902;7.626;2023-12-20T08:01:46;16.05;;;6.97;;
26774;SDS011;14362;51.902;7.626;2023-12-20T08:05:47;23.17;;;8.13;;
26774;SDS011;14362;51.902;7.626;2023-12-20T08:09:48;29.83;;;9.15;;
26774;SDS011;14362;51.902;7.626;2023-12-20T08:13:51;24.83;;;6.47;;
26774;SDS011;14362;51.902;7.626;2023-12-20T08:17:54;21.33;;;6.80;;
26774;SDS011;14362;51.902;7.626;2023-12-20T08:21:55;20.88;;;6.82;;
26774;SDS011;14362;51.902;7.626;2023-12-20T08:25:57;17.58;;;7.28;;
26774;SDS011;14362;51.902;7.626;2023-12-20T08:29:58;27.40;;;6.95;;
26774;SDS011;14362;51.902;7.626;2023-12-20T08:34:01;22.60;;;6.43;;
26774;SDS011;14362;51.902;7.626;2023-12-20T08:38:02;17.77;;;6.97;;
26774;SDS011;14362;51.902;7.626;2023-12-20T08:42:05;27.73;;;8.18;;
26774;SDS011;14362;51.902;7.626;2023-12-20T08:46:06;19.33;;;6.55;;
26774;SDS011;14362;51.902;7.626;2023-12-20T08:50:11;19.60;;;7.60;;
26774;SDS011;14362;51.902;7.626;2023-12-20T08:54:13;20.83;;;7.15;;
26774;SDS011;14362;51.902;7.626;2023-12-20T08:58:14;18.23;;;6.97;;
26774;SDS011;14362;51.902;7.626;2023-12-20T09:02:16;17.92;;;5.80;;
26774;SDS011;14362;51.902;7.626;2023-12-20T09:06:19;18.25;;;7.00;;
26774;SDS011;14362;51.902;7.626;2023-12-20T09:10:20;14.15;;;5.72;;
26774;SDS011;14362;51.902;7.626;2023-12-20T09:14:22;22.85;;;6.90;;
26774;SDS011;14362;51.902;7.626;2023-12-20T09:18:24;23.02;;;6.25;;
26774;SDS011;14362;51.902;7.626;2023-12-20T09:22:27;16.27;;;5.60;;
26774;SDS011;14362;51.902;7.626;2023-12-20T09:26:28;21.92;;;6.25;;
26774;SDS011;14362;51.902;7.626;2023-12-20T09:30:30;20.85;;;7.00;;
26774;SDS011;14362;51.902;7.626;2023-12-20T09:34:31;19.77;;;5.97;;
26774;SDS011;14362;51.902;7.626;2023-12-20T09:38:34;17.73;;;5.55;;
26774;SDS011;14362;51.902;7.626;2023-12-20T09:42:37;18.23;;;5.97;;
26774;SDS011;14362;51.902;7.626;2023-12-20T09:46:42;16.90;;;6.13;;
26774;SDS011;14362;51.902;7.626;2023-12-20T09:50:45;21.42;;;6.05;;
26774;SDS011;14362;51.902;7.626;2023-12-20T09:54:49;20.85;;;5.72;;
26774;SDS011;14362;51.902;7.626;2023-12-20T09:58:53;25.20;;;5.72;;
26774;SDS011;14362;51.902;7.626;2023-12-20T10:02:56;18.05;;;5.20;;
26774;SDS011;14362;51.902;7.626;2023-12-20T10:07:01;14.98;;;5.05;;
26774;SDS011;14362;51.902;7.626;2023-12-20T10:11:05;16.02;;;4.80;;
26774;SDS011;14362;51.902;7.626;2023-12-20T10:15:07;17.90;;;4.70;;
26774;SDS011;14362;51.902;7.626;2023-12-20T10:19:10;15.45;;;4.43;;
26774;SDS011;14362;51.902;7.626;2023-12-20T10:23:12;17.40;;;5.53;;
26774;SDS011;14362;51.902;7.626;2023-12-20T10:27:15;17.23;;;3.88;;
26774;SDS011;14362;51.902;7.626;2023-12-20T10:31:26;13.15;;;3.95;;
26774;SDS011;14362;51.902;7.626;2023-12-20T10:35:28;20.15;;;4.80;;
26774;SDS011;14362;51.902;7.626;2023-12-20T10:39:30;14.20;;;5.15;;
26774;SDS011;14362;51.902;7.626;2023-12-20T10:43:33;19.40;;;4.72;;
26774;SDS011;14362;51.902;7.626;2023-12-20T10:47:35;23.50;;;5.00;;
26774;SDS011;14362;51.902;7.626;2023-12-20T10:51:38;15.00;;;5.13;;
26774;SDS011;14362;51.902;7.626;2023-12-20T10:55:39;16.45;;;3.83;;
26774;SDS011;14362;51.902;7.626;2023-12-20T10:59:43;15.18;;;4.55;;
26774;SDS011;14362;51.902;7.626;2023-12-20T11:03:48;14.00;;;4.13;;
26774;SDS011;14362;51.902;7.626;2023-12-20T11:07:51;10.07;;;3.58;;
26774;SDS011;14362;51.902;7.626;2023-12-20T11:11:59;9.35;;;3.28;;
26774;SDS011;14362;51.902;7.626;2023-12-20T11:16:08;9.75;;;3.72;;
26774;SDS011;14362;51.902;7.626;2023-12-20T11:20:10;22.08;;;5.63;;
26774;SDS011;14362;51.902;7.626;2023-12-20T11:24:12;17.95;;;4.18;;
26774;SDS011;14362;51.902;7.626;2023-12-20T11:28:13;18.58;;;3.88;;
26774;SDS011;14362;51.902;7.626;2023-12-20T11:32:30;14.93;;;4.30;;
26774;SDS011;14362;51.902;7.626;2023-12-20T11:36:32;17.10;;;3.92;;
26774;SDS011;14362;51.902;7.626;2023-12-20T11:40:34;12.63;;;3.97;;
26774;SDS011;14362;51.902;7.626;2023-12-20T11:44:36;14.05;;;4.82;;
26774;SDS011;14362;51.902;7.626;2023-12-20T11:48:39;15.85;;;4.45;;
26774;SDS011;14362;51.902;7.626;2023-12-20T11:52:41;19.90;;;4.68;;
26774;SDS011;14362;51.902;7.626;2023-12-20T11:56:42;15.55;;;3.92;;
26774;SDS011;14362;51.902;7.626;2023-12-20T12:00:44;15.70;;;4.95;;
26774;SDS011;14362;51.902;7.626;2023-12-20T12:04:47;22.77;;;6.13;;
26774;SDS011;14362;51.902;7.626;2023-12-20T12:08:50;21.55;;;4.90;;
26774;SDS011;14362;51.902;7.626;2023-12-20T12:12:52;15.25;;;5.30;;
26774;SDS011;14362;51.902;7.626;2023-12-20T12:16:53;14.63;;;4.78;;
26774;SDS011;14362;51.902;7.626;2023-12-20T12:21:01;10.73;;;4.68;;
26774;SDS011;14362;51.902;7.626;2023-12-20T12:25:09;17.05;;;5.07;;
26774;SDS011;14362;51.902;7.626;2023-12-20T12:29:11;19.30;;;4.53;;
26774;SDS011;14362;51.902;7.626;2023-12-20T12:33:13;10.98;;;4.80;;
26774;SDS011;14362;51.902;7.626;2023-12-20T12:37:17;17.27;;;4.68;;
26774;SDS011;14362;51.902;7.626;2023-12-20T12:41:19;15.98;;;4.32;;
26774;SDS011;14362;51.902;7.626;2023-12-20T12:45:20;16.80;;;4.28;;
26774;SDS011;14362;51.902;7.626;2023-12-20T12:49:22;13.35;;;4.72;;
26774;SDS011;14362;51.902;7.626;2023-12-20T12:53:25;15.68;;;4.45;;
26774;SDS011;14362;51.902;7.626;2023-12-20T12:57:27;14.13;;;4.05;;
26774;SDS011;14362;51.902;7.626;2023-12-20T13:01:29;14.65;;;3.67;;
26774;SDS011;14362;51.902;7.626;2023-12-20T13:05:30;16.85;;;3.80;;
26774;SDS011;14362;51.902;7.626;2023-12-20T13:09:33;19.52;;;4.22;;
26774;SDS011;14362;51.902;7.626;2023-12-20T13:13:34;16.70;;;3.90;;
26774;SDS011;14362;51.902;7.626;2023-12-20T13:17:36;19.13;;;4.38;;
26774;SDS011;14362;51.902;7.626;2023-12-20T13:21:38;15.35;;;3.90;;
26774;SDS011;14362;51.902;7.626;2023-12-20T13:25:41;12.93;;;3.70;;
26774;SDS011;14362;51.902;7.626;2023-12-20T13:29:42;9.98;;;4.22;;
26774;SDS011;14362;51.902;7.626;2023-12-20T13:33:44;13.80;;;4.15;;
26774;SDS011;14362;51.902;7.626;2023-12-20T13:37:45;13.70;;;3.83;;
26774;SDS011;14362;51.902;7.626;2023-12-20T13:41:48;12.98;;;4.03;;
26774;SDS011;14362;51.902;7.626;2023-12-20T13:45:49;18.85;;;3.92;;
26774;SDS011;14362;51.902;7.626;2023-12-20T13:49:51;16.38;;;3.47;;
26774;SDS011;14362;51.902;7.626;2023-12-20T13:53:52;17.42;;;4.35;;
26774;SDS011;14362;51.902;7.626;2023-12-20T13:57:55;15.45;;;3.58;;
26774;SDS011;14362;51.902;7.626;2023-12-20T14:01:57;17.30;;;4.13;;
26774;SDS011;14362;51.902;7.626;2023-12-20T14:05:58;16.50;;;4.53;;
26774;SDS011;14362;51.902;7.626;2023-12-20T14:10:01;14.43;;;4.10;;
26774;SDS011;14362;51.902;7.626;2023-12-20T14:14:04;15.80;;;4.50;;
26774;SDS011;14362;51.902;7.626;2023-12-20T14:18:06;12.13;;;4.43;;
26774;SDS011;14362;51.902;7.626;2023-12-20T14:22:08;12.77;;;3.95;;
26774;SDS011;14362;51.902;7.626;2023-12-20T14:26:10;13.77;;;4.28;;
26774;SDS011;14362;51.902;7.626;2023-12-20T14:30:15;11.87;;;3.57;;
26774;SDS011;14362;51.902;7.626;2023-12-20T14:34:17;9.68;;;4.40;;
26774;SDS011;14362;51.902;7.626;2023-12-20T14:38:18;16.15;;;4.28;;
26774;SDS011;14362;51.902;7.626;2023-12-20T14:42:20;16.10;;;4.20;;
26774;SDS011;14362;51.902;7.626;2023-12-20T14:46:24;14.82;;;4.53;;
26774;SDS011;14362;51.902;7.626;2023-12-20T14:50:25;11.63;;;4.30;;
26774;SDS011;14362;51.902;7.626;2023-12-20T14:54:26;19.88;;;4.25;;
26774;SDS011;14362;51.902;7.626;2023-12-20T14:58:28;14.63;;;4.88;;
26774;SDS011;14362;51.902;7.626;2023-12-20T15:02:31;10.98;;;5.35;;
26774;SDS011;14362;51.902;7.626;2023-12-20T15:06:33;12.90;;;4.95;;
26774;SDS011;14362;51.902;7.626;2023-12-20T15:10:34;14.02;;;4.60;;
26774;SDS011;14362;51.902;7.626;2023-12-20T15:14:36;12.75;;;5.35;;
26774;SDS011;14362;51.902;7.626;2023-12-20T15:18:39;13.45;;;5.22;;
26774;SDS011;14362;51.902;7.626;2023-12-20T15:22:40;20.08;;;6.43;;
26774;SDS011;14362;51.902;7.626;2023-12-20T15:26:44;12.00;;;5.87;;
26774;SDS011;14362;51.902;7.626;2023-12-20T15:30:46;15.88;;;6.28;;
26774;SDS011;14362;51.902;7.626;2023-12-20T15:34:49;13.85;;;6.32;;
26774;SDS011;14362;51.902;7.626;2023-12-20T15:38:52;16.10;;;5.72;;
26774;SDS011;14362;51.902;7.626;2023-12-20T15:42:53;24.52;;;7.25;;
26774;SDS011;14362;51.902;7.626;2023-12-20T15:46:55;20.42;;;7.63;;
26774;SDS011;14362;51.902;7.626;2023-12-20T15:50:58;15.05;;;7.50;;
26774;SDS011;14362;51.902;7.626;2023-12-20T15:55:00;21.08;;;8.10;;
26774;SDS011;14362;51.902;7.626;2023-12-20T15:59:02;18.98;;;8.10;;
26774;SDS011;14362;51.902;7.626;2023-12-20T16:03:03;16.90;;;7.78;;
26774;SDS011;14362;51.902;7.626;2023-12-20T16:07:06;19.63;;;8.00;;
26774;SDS011;14362;51.902;7.626;2023-12-20T16:11:08;20.15;;;8.43;;
26774;SDS011;14362;51.902;7.626;2023-12-20T16:15:10;26.65;;;8.40;;
26774;SDS011;14362;51.902;7.626;2023-12-20T16:19:12;19.95;;;8.57;;
26774;SDS011;14362;51.902;7.626;2023-12-20T16:23:15;17.30;;;8.23;;
26774;SDS011;14362;51.902;7.626;2023-12-20T16:27:16;22.05;;;9.18;;
26774;SDS011;14362;51.902;7.626;2023-12-20T16:31:18;21.58;;;9.15;;
26774;SDS011;14362;51.902;7.626;2023-12-20T16:35:19;20.65;;;9.77;;
26774;SDS011;14362;51.902;7.626;2023-12-20T16:39:22;25.92;;;10.80;;
26774;SDS011;14362;51.902;7.626;2023-12-20T16:43:24;27.15;;;10.32;;
26774;SDS011;14362;51.902;7.626;2023-12-20T16:47:25;23.38;;;10.35;;
26774;SDS011;14362;51.902;7.626;2023-12-20T16:51:27;20.05;;;10.55;;
26774;SDS011;14362;51.902;7.626;2023-12-20T16:55:30;21.75;;;10.52;;
26774;SDS011;14362;51.902;7.626;2023-12-20T16:59:33;19.35;;;10.27;;
26774;SDS011;14362;51.902;7.626;2023-12-20T17:03:34;23.23;;;10.57;;
26774;SDS011;14362;51.902;7.626;2023-12-20T17:07:36;26.67;;;11.00;;
26774;SDS011;14362;51.902;7.626;2023-12-20T17:11:39;26.40;;;12.00;;
26774;SDS011;14362;51.902;7.626;2023-12-20T17:15:40;26.77;;;10.75;;
26774;SDS011;14362;51.902;7.626;2023-12-20T17:19:42;18.73;;;9.75;;
26774;SDS011;14362;51.902;7.626;2023-12-20T17:23:43;23.52;;;11.05;;
26774;SDS011;14362;51.902;7.626;2023-12-20T17:27:47;21.40;;;10.38;;
26774;SDS011;14362;51.902;7.626;2023-12-20T17:31:48;29.88;;;12.43;;
26774;SDS011;14362;51.902;7.626;2023-12-20T17:35:50;27.40;;;12.00;;
26774;SDS011;14362;51.902;7.626;2023-12-20T17:39:51;27.85;;;11.10;;
26774;SDS011;14362;51.902;7.626;2023-12-20T17:43:54;25.88;;;11.50;;
26774;SDS011;14362;51.902;7.626;2023-12-20T17:47:55;27.13;;;11.70;;
26774;SDS011;14362;51.902;7.626;2023-12-20T17:51:57;25.15;;;11.30;;
26774;SDS011;14362;51.902;7.626;2023-12-20T17:55:58;22.05;;;11.15;;
26774;SDS011;14362;51.902;7.626;2023-12-20T18:00:11;30.17;;;11.95;;
26774;SDS011;14362;51.902;7.626;2023-12-20T18:04:14;21.63;;;11.38;;
26774;SDS011;14362;51.902;7.626;2023-12-20T18:08:19;25.52;;;10.88;;
26774;SDS011;14362;51.902;7.626;2023-12-20T18:12:20;24.58;;;11.20;;
26774;SDS011;14362;51.902;7.626;2023-12-20T18:16:23;26.83;;;12.18;;
26774;SDS011;14362;51.902;7.626;2023-12-20T18:20:24;25.52;;;12.50;;
26774;SDS011;14362;51.902;7.626;2023-12-20T18:24:26;26.38;;;12.38;;
26774;SDS011;14362;51.902;7.626;2023-12-20T18:28:27;20.50;;;12.55;;
26774;SDS011;14362;51.902;7.626;2023-12-20T18:32:30;22.27;;;13.13;;
26774;SDS011;14362;51.902;7.626;2023-12-20T18:36:31;28.00;;;12.60;;
26774;SDS011;14362;51.902;7.626;2023-12-20T18:40:33;24.00;;;12.20;;
26774;SDS011;14362;51.902;7.626;2023-12-20T18:44:34;29.75;;;13.60;;
26774;SDS011;14362;51.902;7.626;2023-12-20T18:48:37;26.02;;;13.63;;
26774;SDS011;14362;51.902;7.626;2023-12-20T18:52:40;24.15;;;12.98;;
26774;SDS011;14362;51.902;7.626;2023-12-20T18:56:41;23.73;;;12.25;;
26774;SDS011;14362;51.902;7.626;2023-12-20T19:00:43;23.10;;;14.23;;
26774;SDS011;14362;51.902;7.626;2023-12-20T19:04:46;21.38;;;12.32;;
26774;SDS011;14362;51.902;7.626;2023-12-20T19:08:47;27.88;;;14.55;;
26774;SDS011;14362;51.902;7.626;2023-12-20T19:12:50;25.17;;;13.43;;
26774;SDS011;14362;51.902;7.626;2023-12-20T19:16:51;23.90;;;13.52;;
26774;SDS011;14362;51.902;7.626;2023-12-20T19:20:55;29.85;;;13.77;;
26774;SDS011;14362;51.902;7.626;2023-12-20T19:24:56;24.92;;;14.20;;
26774;SDS011;14362;51.902;7.626;2023-12-20T19:28:59;23.27;;;13.93;;
26774;SDS011;14362;51.902;7.626;2023-12-20T19:33:00;25.27;;;14.25;;
26774;SDS011;14362;51.902;7.626;2023-12-20T19:37:03;27.30;;;15.23;;
26774;SDS011;14362;51.902;7.626;2023-12-20T19:41:05;26.92;;;14.65;;
26774;SDS011;14362;51.902;7.626;2023-12-20T19:45:07;20.30;;;13.00;;
26774;SDS011;14362;51.902;7.626;2023-12-20T19:49:10;19.92;;;12.13;;
26774;SDS011;14362;51.902;7.626;2023-12-20T19:53:13;18.27;;;12.38;;
26774;SDS011;14362;51.902;7.626;2023-12-20T19:57:14;21.75;;;12.43;;
26774;SDS011;14362;51.902;7.626;2023-12-20T20:01:16;20.98;;;12.50;;
26774;SDS011;14362;51.902;7.626;2023-12-20T20:05:17;23.60;;;12.55;;
26774;SDS011;14362;51.902;7.626;2023-12-20T20:09:20;23.10;;;12.23;;
26774;SDS011;14362;51.902;7.626;2023-12-20T20:13:21;16.27;;;11.65;;
26774;SDS011;14362;51.902;7.626;2023-12-20T20:17:23;21.20;;;12.65;;
26774;SDS011;14362;51.902;7.626;2023-12-20T20:21:25;18.27;;;11.60;;
26774;SDS011;14362;51.902;7.626;2023-12-20T20:25:27;17.35;;;11.35;;
26774;SDS011;14362;51.902;7.626;2023-12-20T20:29:29;17.48;;;11.73;;
26774;SDS011;14362;51.902;7.626;2023-12-20T20:33:30;21.00;;;11.05;;
26774;SDS011;14362;51.902;7.626;2023-12-20T20:37:32;16.30;;;10.90;;
26774;SDS011;14362;51.902;7.626;2023-12-20T20:41:34;14.48;;;10.82;;
26774;SDS011;14362;51.902;7.626;2023-12-20T20:45:36;16.63;;;12.05;;
26774;SDS011;14362;51.902;7.626;2023-12-20T20:49:38;15.55;;;9.93;;
26774;SDS011;14362;51.902;7.626;2023-12-20T20:53:39;19.15;;;10.27;;
26774;SDS011;14362;51.902;7.626;2023-12-20T20:57:42;14.43;;;10.60;;
26774;SDS011;14362;51.902;7.626;2023-12-20T21:01:47;17.58;;;11.32;;
26774;SDS011;14362;51.902;7.626;2023-12-20T21:05:48;16.25;;;10.70;;
26774;SDS011;14362;51.902;7.626;2023-12-20T21:09:50;16.13;;;10.80;;
26774;SDS011;14362;51.902;7.626;2023-12-20T21:13:53;16.35;;;11.23;;
26774;SDS011;14362;51.902;7.626;2023-12-20T21:17:54;14.68;;;11.50;;
26774;SDS011;14362;51.902;7.626;2023-12-20T21:21:56;17.30;;;12.10;;
26774;SDS011;14362;51.902;7.626;2023-12-20T21:25:57;16.15;;;11.75;;
26774;SDS011;14362;51.902;7.626;2023-12-20T21:30:00;17.40;;;10.73;;
26774;SDS011;14362;51.902;7.626;2023-12-20T21:34:02;17.13;;;10.50;;
26774;SDS011;14362;51.902;7.626;2023-12-20T21:38:03;18.90;;;12.05;;
26774;SDS011;14362;51.902;7.626;2023-12-20T21:42:05;18.05;;;11.50;;
26774;SDS011;14362;51.902;7.626;2023-12-20T21:46:09;19.05;;;11.95;;
26774;SDS011;14362;51.902;7.626;2023-12-20T21:50:10;16.80;;;11.48;;
26774;SDS011;14362;51.902;7.626;2023-12-20T21:54:12;17.42;;;11.95;;
26774;SDS011;14362;51.902;7.626;2023-12-20T21:58:14;17.17;;;11.80;;
26774;SDS011;14362;51.902;7.626;2023-12-20T22:02:17;17.08;;;11.95;;
26774;SDS011;14362;51.902;7.626;2023-12-20T22:06:18;15.98;;;11.95;;
26774;SDS011;14362;51.902;7.626;2023-12-20T22:10:20;15.13;;;12.23;;
26774;SDS011;14362;51.902;7.626;2023-12-20T22:14:21;16.63;;;12.48;;
26774;SDS011;14362;51.902;7.626;2023-12-20T22:18:25;14.00;;;11.20;;
26774;SDS011;14362;51.902;7.626;2023-12-20T22:22:26;17.90;;;12.82;;
26774;SDS011;14362;51.902;7.626;2023-12-20T22:26:28;15.85;;;12.48;;
26774;SDS011;14362;51.902;7.626;2023-12-20T22:30:30;18.23;;;12.48;;
26774;SDS011;14362;51.902;7.626;2023-12-20T22:34:33;16.85;;;12.13;;
26774;SDS011;14362;51.902;7.626;2023-12-20T22:38:34;20.48;;;13.02;;
26774;SDS011;14362;51.902;7.626;2023-12-20T22:42:36;17.95;;;11.45;;
26774;SDS011;14362;51.902;7.626;2023-12-20T22:46:37;20.20;;;12.50;;
26774;SDS011;14362;51.902;7.626;2023-12-20T22:50:41;16.17;;;11.38;;
26774;SDS011;14362;51.902;7.626;2023-12-20T22:54:43;14.68;;;11.13;;
26774;SDS011;14362;51.902;7.626;2023-12-20T22:58:44;13.52;;;10.55;;
26774;SDS011;14362;51.902;7.626;2023-12-20T23:02:45;12.35;;;9.63;;
26774;SDS011;14362;51.902;7.626;2023-12-20T23:06:48;12.18;;;9.13;;
26774;SDS011;14362;51.902;7.626;2023-12-20T23:10:50;12.23;;;9.00;;
26774;SDS011;14362;51.902;7.626;2023-12-20T23:14:51;13.07;;;8.60;;
26774;SDS011;14362;51.902;7.626;2023-12-20T23:18:52;12.35;;;8.70;;
26774;SDS011;14362;51.902;7.626;2023-12-20T23:22:55;12.00;;;8.73;;
26774;SDS011;14362;51.902;7.626;2023-12-20T23:26:57;10.88;;;9.10;;
26774;SDS011;14362;51.902;7.626;2023-12-20T23:30:58;10.27;;;8.75;;
26774;SDS011;14362;51.902;7.626;2023-12-20T23:35:00;10.75;;;8.80;;
26774;SDS011;14362;51.902;7.626;2023-12-20T23:39:02;14.05;;;9.45;;
26774;SDS011;14362;51.902;7.626;2023-12-20T23:43:04;13.00;;;9.35;;
26774;SDS011;14362;51.902;7.626;2023-12-20T23:47:05;15.90;;;10.13;;
26774;SDS011;14362;51.902;7.626;2023-12-20T23:51:07;13.00;;;10.50;;